createdAt,value
2018-02-27T00:00:40.471Z,41.83
2018-02-27T00:03:07.897Z,42.15
2018-02-27T00:05:35.360Z,41.74
2018-02-27T00:08:02.818Z,41.95
2018-02-27T00:10:30.290Z,41.99
2018-02-27T00:12:57.751Z,41.95
2018-02-27T00:15:25.288Z,42.20
2018-02-27T00:17:52.746Z,42.47
2018-02-27T00:20:20.223Z,42.85
2018-02-27T00:22:47.679Z,43.01
2018-02-27T00:25:15.122Z,42.69
2018-02-27T00:27:42.562Z,42.39
2018-02-27T00:30:10.051Z,42.54
2018-02-27T00:32:37.487Z,42.81
2018-02-27T00:35:04.957Z,42.84
2018-02-27T00:37:32.389Z,43.22
2018-02-27T00:39:59.911Z,42.81
2018-02-27T00:42:27.325Z,42.76
2018-02-27T00:44:54.746Z,43.12
2018-02-27T00:47:22.191Z,43.11
2018-02-27T00:49:49.631Z,43.06
2018-02-27T00:52:17.092Z,43.05
2018-02-27T00:54:44.514Z,42.87
2018-02-27T00:57:11.976Z,43.12
2018-02-27T00:59:39.560Z,43.34
2018-02-27T01:02:07.023Z,43.32
2018-02-27T01:04:34.468Z,43.58
2018-02-27T01:07:01.919Z,43.49
2018-02-27T01:09:29.401Z,43.54
2018-02-27T01:11:56.870Z,43.73
2018-02-27T01:14:24.334Z,43.60
2018-02-27T01:16:51.851Z,44.04
2018-02-27T01:19:19.303Z,43.53
2018-02-27T01:21:46.754Z,43.87
2018-02-27T01:24:14.194Z,44.11
2018-02-27T01:26:41.625Z,44.10
2018-02-27T01:29:09.262Z,44.14
2018-02-27T01:31:36.691Z,44.34
2018-02-27T01:34:04.156Z,44.05
2018-02-27T01:36:31.593Z,44.28
2018-02-27T01:38:59.050Z,44.26
2018-02-27T01:41:26.488Z,44.27
2018-02-27T01:43:53.952Z,44.50
2018-02-27T01:46:21.389Z,44.09
2018-02-27T01:48:48.807Z,44.28
2018-02-27T01:51:16.268Z,44.42
2018-02-27T01:53:43.689Z,44.66
2018-02-27T01:56:11.156Z,44.62
2018-02-27T01:58:38.582Z,44.82
2018-02-27T02:01:06.045Z,44.84
2018-02-27T02:03:33.484Z,45.12
2018-02-27T02:06:00.979Z,45.03
2018-02-27T02:08:28.400Z,45.41
2018-02-27T02:10:55.833Z,45.40
2018-02-27T02:13:23.286Z,45.30
2018-02-27T02:15:50.715Z,45.39
2018-02-27T02:18:18.172Z,45.82
2018-02-27T02:20:45.601Z,45.68
2018-02-27T02:23:13.142Z,45.36
2018-02-27T02:25:40.672Z,45.28
2018-02-27T02:28:08.133Z,45.52
2018-02-27T02:30:35.590Z,45.56
2018-02-27T02:33:03.087Z,45.57
2018-02-27T02:35:30.570Z,45.46
2018-02-27T02:38:00.157Z,45.44
2018-02-27T02:40:27.582Z,45.61
2018-02-27T02:42:55.056Z,46.06
2018-02-27T02:45:22.504Z,45.74
2018-02-27T02:47:49.950Z,45.72
2018-02-27T02:50:17.374Z,45.60
2018-02-27T02:52:44.848Z,45.32
2018-02-27T02:55:12.323Z,45.38
2018-02-27T02:57:39.796Z,44.90
2018-02-27T03:00:07.246Z,44.97
2018-02-27T03:02:34.677Z,44.87
2018-02-27T03:05:02.137Z,44.97
2018-02-27T03:07:29.567Z,44.69
2018-02-27T03:09:57.035Z,44.84
2018-02-27T03:12:28.375Z,44.51
2018-02-27T03:14:55.790Z,44.92
2018-02-27T03:17:23.255Z,44.57
2018-02-27T03:19:50.692Z,44.38
2018-02-27T03:22:18.198Z,45.04
2018-02-27T03:24:45.641Z,44.89
2018-02-27T03:27:13.108Z,45.08
2018-02-27T03:29:40.582Z,44.90
2018-02-27T03:32:08.039Z,44.76
2018-02-27T03:34:35.461Z,45.03
2018-02-27T03:37:03.311Z,44.80
2018-02-27T03:39:30.745Z,44.62
2018-02-27T03:41:58.211Z,44.37
2018-02-27T03:44:25.635Z,44.54
2018-02-27T03:46:53.101Z,44.28
2018-02-27T03:49:20.527Z,44.44
2018-02-27T03:51:48.067Z,44.52
2018-02-27T03:54:15.511Z,44.56
2018-02-27T03:56:42.961Z,44.60
2018-02-27T03:59:10.423Z,45.34
2018-02-27T04:01:37.900Z,45.25
2018-02-27T04:04:05.440Z,44.72
2018-02-27T04:06:32.881Z,44.56
2018-02-27T04:09:00.350Z,44.96
2018-02-27T04:11:27.783Z,44.86
2018-02-27T04:13:55.236Z,45.15
2018-02-27T04:16:22.693Z,44.82
2018-02-27T04:18:50.120Z,44.95
2018-02-27T04:21:17.564Z,45.14
2018-02-27T04:23:45.013Z,45.15
2018-02-27T04:26:12.462Z,45.25
2018-02-27T04:28:39.893Z,45.39
2018-02-27T04:31:07.344Z,45.57
2018-02-27T04:33:34.842Z,45.39
2018-02-27T04:36:02.266Z,45.07
2018-02-27T04:38:29.719Z,45.01
2018-02-27T04:40:57.185Z,45.41
2018-02-27T04:43:24.622Z,45.80
2018-02-27T04:45:52.158Z,45.71
2018-02-27T04:48:19.610Z,45.70
2018-02-27T04:50:47.113Z,45.80
2018-02-27T04:53:14.550Z,45.76
2018-02-27T04:55:42.015Z,46.00
2018-02-27T04:58:09.480Z,46.05
2018-02-27T05:00:36.950Z,46.03
2018-02-27T05:03:04.407Z,46.28
2018-02-27T05:05:31.853Z,46.19
2018-02-27T05:07:59.324Z,46.35
2018-02-27T05:10:26.875Z,46.25
2018-02-27T05:12:54.319Z,46.31
2018-02-27T05:15:21.781Z,46.28
2018-02-27T05:17:49.261Z,45.97
2018-02-27T05:20:17.623Z,45.87
2018-02-27T05:22:45.212Z,45.62
2018-02-27T05:25:12.741Z,46.12
2018-02-27T05:27:40.174Z,46.21
2018-02-27T05:30:07.678Z,46.21
2018-02-27T05:32:35.664Z,46.02
2018-02-27T05:35:03.093Z,45.99
2018-02-27T05:37:30.564Z,46.07
2018-02-27T05:39:58.003Z,45.89
2018-02-27T05:42:25.444Z,46.25
2018-02-27T05:44:52.917Z,46.49
2018-02-27T05:47:20.378Z,46.33
2018-02-27T05:49:47.840Z,46.20
2018-02-27T05:52:15.317Z,46.09
2018-02-27T05:54:42.739Z,45.82
2018-02-27T05:57:10.244Z,45.98
2018-02-27T05:59:37.696Z,45.98
2018-02-27T06:02:05.346Z,46.27
2018-02-27T06:04:32.978Z,46.74
2018-02-27T06:07:00.543Z,46.68
2018-02-27T06:09:28.225Z,47.05
2018-02-27T06:11:55.691Z,47.18
2018-02-27T06:14:23.172Z,47.38
2018-02-27T06:16:50.653Z,47.41
2018-02-27T06:19:18.069Z,47.21
2018-02-27T06:21:46.151Z,47.19
2018-02-27T06:24:13.607Z,46.95
2018-02-27T06:26:41.088Z,46.67
2018-02-27T06:29:08.512Z,46.71
2018-02-27T06:31:35.978Z,46.72
2018-02-27T06:34:03.928Z,46.43
2018-02-27T06:36:31.374Z,46.43
2018-02-27T06:38:58.846Z,46.40
2018-02-27T06:41:26.283Z,46.69
2018-02-27T06:43:53.761Z,47.26
2018-02-27T06:46:21.381Z,47.59
2018-02-27T06:48:48.843Z,47.60
2018-02-27T06:51:16.317Z,47.62
2018-02-27T06:53:43.794Z,47.43
2018-02-27T06:56:11.250Z,47.19
2018-02-27T06:58:38.683Z,47.26
2018-02-27T07:01:06.157Z,47.50
2018-02-27T07:03:33.626Z,47.54
2018-02-27T07:06:01.130Z,47.40
2018-02-27T07:08:28.601Z,47.47
2018-02-27T07:10:56.066Z,46.90
2018-02-27T07:13:23.506Z,46.06
2018-02-27T07:15:50.970Z,45.26
2018-02-27T07:18:18.436Z,44.59
2018-02-27T07:20:45.882Z,43.77
2018-02-27T07:23:13.381Z,43.73
2018-02-27T07:25:40.903Z,43.75
2018-02-27T07:28:08.373Z,43.85
2018-02-27T07:30:35.806Z,43.57
2018-02-27T07:33:03.310Z,43.56
2018-02-27T07:35:30.764Z,43.10
2018-02-27T07:37:58.217Z,42.89
2018-02-27T07:40:25.714Z,42.72
2018-02-27T07:42:53.159Z,42.22
2018-02-27T07:45:20.592Z,40.87
2018-02-27T07:47:48.078Z,40.61
2018-02-27T07:50:15.679Z,40.17
2018-02-27T07:52:43.124Z,39.85
2018-02-27T07:55:10.573Z,40.06
2018-02-27T07:57:38.013Z,40.63
2018-02-27T08:00:05.440Z,41.26
2018-02-27T08:02:32.900Z,41.37
2018-02-27T08:05:00.363Z,41.17
2018-02-27T08:07:27.835Z,41.36
2018-02-27T08:09:55.301Z,40.75
2018-02-27T08:12:23.367Z,39.57
2018-02-27T08:14:50.802Z,39.08
2018-02-27T08:17:18.265Z,39.49
2018-02-27T08:19:45.781Z,38.89
2018-02-27T08:22:13.229Z,38.63
2018-02-27T08:24:40.731Z,38.59
2018-02-27T08:27:08.187Z,38.31
2018-02-27T08:29:36.252Z,38.19
2018-02-27T08:32:03.734Z,37.32
2018-02-27T08:34:31.255Z,36.10
2018-02-27T08:36:58.700Z,36.79
2018-02-27T08:39:26.150Z,36.47
2018-02-27T08:41:53.610Z,36.89
2018-02-27T08:44:21.047Z,37.17
2018-02-27T08:46:48.504Z,37.56
2018-02-27T08:49:15.954Z,37.08
2018-02-27T08:51:43.454Z,36.70
2018-02-27T08:54:11.015Z,36.31
2018-02-27T08:56:38.600Z,36.04
2018-02-27T08:59:06.144Z,35.38
2018-02-27T09:01:33.574Z,34.95
2018-02-27T09:04:01.037Z,34.98
2018-02-27T09:06:28.475Z,34.79
2018-02-27T09:08:55.937Z,33.21
2018-02-27T09:11:23.389Z,33.72
2018-02-27T09:13:50.901Z,34.31
2018-02-27T09:16:18.374Z,34.51
2018-02-27T09:18:45.807Z,34.25
2018-02-27T09:21:13.315Z,35.71
2018-02-27T09:23:40.748Z,35.06
2018-02-27T09:26:08.358Z,35.55
2018-02-27T09:28:35.791Z,37.17
2018-02-27T09:31:03.220Z,37.32
2018-02-27T09:33:30.716Z,37.32
2018-02-27T09:35:58.140Z,37.55
2018-02-27T09:38:25.649Z,37.89
2018-02-27T09:40:53.042Z,38.03
2018-02-27T09:43:20.505Z,37.92
2018-02-27T09:45:48.083Z,38.71
2018-02-27T09:48:15.544Z,36.77
2018-02-27T09:50:42.997Z,35.38
2018-02-27T09:53:10.427Z,35.11
2018-02-27T09:55:37.969Z,34.00
2018-02-27T09:58:05.412Z,33.06
2018-02-27T10:00:32.897Z,32.15
2018-02-27T10:03:00.347Z,30.79
2018-02-27T10:05:27.832Z,29.46
2018-02-27T10:07:55.269Z,29.92
2018-02-27T10:10:22.696Z,30.35
2018-02-27T10:12:50.158Z,30.30
2018-02-27T10:15:17.584Z,30.61
2018-02-27T10:17:45.060Z,29.97
2018-02-27T10:20:12.490Z,28.75
2018-02-27T10:22:40.013Z,28.95
2018-02-27T10:25:07.440Z,30.11
2018-02-27T10:27:34.955Z,29.81
2018-02-27T10:30:02.376Z,30.42
2018-02-27T10:32:29.800Z,30.86
2018-02-27T10:34:57.289Z,30.97
2018-02-27T10:37:24.734Z,31.42
2018-02-27T10:39:52.232Z,30.99
2018-02-27T10:42:19.696Z,31.33
2018-02-27T10:44:47.166Z,31.26
2018-02-27T10:47:14.602Z,29.83
2018-02-27T10:49:42.064Z,29.98
2018-02-27T10:52:09.527Z,30.55
2018-02-27T10:54:36.992Z,31.05
2018-02-27T10:57:04.419Z,31.09
2018-02-27T10:59:31.888Z,31.07
2018-02-27T11:02:14.232Z,32.19
2018-02-27T11:04:41.666Z,32.44
2018-02-27T11:07:09.135Z,32.95
2018-02-27T11:09:36.574Z,32.99
2018-02-27T11:12:04.124Z,33.15
2018-02-27T11:14:31.606Z,32.83
2018-02-27T11:16:59.093Z,33.03
2018-02-27T11:19:26.556Z,33.18
2018-02-27T11:21:53.993Z,33.09
2018-02-27T11:24:21.503Z,33.53
2018-02-27T11:26:48.955Z,33.61
2018-02-27T11:29:16.410Z,33.59
2018-02-27T11:31:43.891Z,32.86
2018-02-27T11:34:11.395Z,32.90
2018-02-27T11:36:38.904Z,33.55
2018-02-27T11:39:06.334Z,33.61
2018-02-27T11:41:33.978Z,33.95
2018-02-27T11:44:01.501Z,34.42
2018-02-27T11:46:28.973Z,33.95
2018-02-27T11:48:56.474Z,33.03
2018-02-27T11:51:23.912Z,31.10
2018-02-27T11:53:51.365Z,31.21
2018-02-27T11:56:18.840Z,29.61
2018-02-27T11:58:46.259Z,29.17
2018-02-27T12:01:13.881Z,29.46
2018-02-27T12:03:41.355Z,29.48
2018-02-27T12:06:08.898Z,29.40
2018-02-27T12:08:36.659Z,29.12
2018-02-27T12:11:04.131Z,29.84
2018-02-27T12:13:31.665Z,30.18
2018-02-27T12:15:59.089Z,31.00
2018-02-27T12:18:26.613Z,30.61
2018-02-27T12:20:54.081Z,30.81
2018-02-27T12:23:21.550Z,29.12
2018-02-27T12:25:49.012Z,28.66
2018-02-27T12:28:16.471Z,28.01
2018-02-27T12:30:43.928Z,27.04
2018-02-27T12:33:11.405Z,27.38
2018-02-27T12:35:38.836Z,27.94
2018-02-27T12:38:06.321Z,28.62
2018-02-27T12:40:33.810Z,28.73
2018-02-27T12:43:01.247Z,28.63
2018-02-27T12:45:28.713Z,29.18
2018-02-27T12:47:56.166Z,28.47
2018-02-27T12:50:23.664Z,25.76
2018-02-27T12:52:51.121Z,24.91
2018-02-27T12:55:18.584Z,22.64
2018-02-27T12:57:46.019Z,21.98
2018-02-27T13:00:13.487Z,22.57
2018-02-27T13:02:40.924Z,22.98
2018-02-27T13:05:08.412Z,24.31
2018-02-27T13:07:35.853Z,25.35
2018-02-27T13:10:03.339Z,26.22
2018-02-27T13:12:30.777Z,26.30
2018-02-27T13:14:58.253Z,26.87
2018-02-27T13:17:25.720Z,27.00
2018-02-27T13:19:53.188Z,27.01
2018-02-27T13:22:20.668Z,26.80
2018-02-27T13:24:48.098Z,27.22
2018-02-27T13:27:15.560Z,26.73
2018-02-27T13:29:43.048Z,26.46
2018-02-27T13:32:10.505Z,27.35
2018-02-27T13:34:37.941Z,26.83
2018-02-27T13:39:39.431Z,27.65
2018-02-27T13:42:06.895Z,28.39
2018-02-27T13:44:34.374Z,28.25
2018-02-27T13:47:01.814Z,27.31
2018-02-27T13:49:29.305Z,26.89
2018-02-27T13:51:56.774Z,27.08
2018-02-27T13:54:24.247Z,27.25
2018-02-27T13:56:51.700Z,27.34
2018-02-27T13:59:19.286Z,27.60
2018-02-27T14:01:46.718Z,27.81
2018-02-27T14:04:14.160Z,27.80
2018-02-27T14:06:41.636Z,27.67
2018-02-27T14:09:09.066Z,28.11
2018-02-27T14:11:36.529Z,28.32
2018-02-27T14:14:03.973Z,29.55
2018-02-27T14:16:31.426Z,29.73
2018-02-27T14:18:58.893Z,29.08
2018-02-27T14:21:26.381Z,29.86
2018-02-27T14:23:53.830Z,29.29
2018-02-27T14:26:21.290Z,29.76
2018-02-27T14:28:48.738Z,29.85
2018-02-27T14:31:16.798Z,29.18
2018-02-27T14:33:44.297Z,28.68
2018-02-27T14:36:11.846Z,28.00
2018-02-27T14:38:39.419Z,28.01
2018-02-27T14:41:06.852Z,28.06
2018-02-27T14:43:34.382Z,27.87
2018-02-27T14:46:01.836Z,28.75
2018-02-27T14:48:29.275Z,29.93
2018-02-27T14:50:56.737Z,29.80
2018-02-27T14:53:24.165Z,30.56
2018-02-27T14:55:51.687Z,30.63
2018-02-27T14:58:19.244Z,30.13
2018-02-27T15:00:46.766Z,29.64
2018-02-27T15:03:14.196Z,30.28
2018-02-27T15:05:41.666Z,30.35
2018-02-27T15:08:09.165Z,31.24
2018-02-27T15:10:36.613Z,31.99
2018-02-27T15:13:04.080Z,32.23
2018-02-27T15:15:31.573Z,32.24
2018-02-27T15:17:59.078Z,32.80
2018-02-27T15:20:26.642Z,32.52
2018-02-27T15:22:54.152Z,32.57
2018-02-27T15:25:21.649Z,32.23
2018-02-27T15:27:49.101Z,32.31
2018-02-27T15:30:16.571Z,32.67
2018-02-27T15:32:43.994Z,32.90
2018-02-27T15:35:11.466Z,32.78
2018-02-27T15:37:38.945Z,32.89
2018-02-27T15:40:06.438Z,32.83
2018-02-27T15:42:33.904Z,33.32
2018-02-27T15:45:01.340Z,33.14
2018-02-27T15:47:28.867Z,33.65
2018-02-27T15:49:56.426Z,33.71
2018-02-27T15:52:23.869Z,33.54
2018-02-27T15:54:51.367Z,33.73
2018-02-27T15:57:18.782Z,33.75
2018-02-27T15:59:46.261Z,33.66
2018-02-27T16:02:13.764Z,33.68
2018-02-27T16:04:41.234Z,33.38
2018-02-27T16:07:08.665Z,34.23
2018-02-27T16:09:36.124Z,33.99
2018-02-27T16:12:03.572Z,34.18
2018-02-27T16:14:31.047Z,34.12
2018-02-27T16:16:58.488Z,34.40
2018-02-27T16:19:25.978Z,34.21
2018-02-27T16:21:53.600Z,34.21
2018-02-27T16:24:21.161Z,34.61
2018-02-27T16:26:48.640Z,34.88
2018-02-27T16:29:16.128Z,35.38
2018-02-27T16:31:43.599Z,35.16
2018-02-27T16:34:11.124Z,35.24
2018-02-27T16:36:39.182Z,35.28
2018-02-27T16:39:06.646Z,35.33
2018-02-27T16:41:34.209Z,35.38
2018-02-27T16:44:01.704Z,35.36
2018-02-27T16:46:29.374Z,35.30
2018-02-27T16:48:56.954Z,35.72
2018-02-27T16:51:24.704Z,36.33
2018-02-27T16:53:52.160Z,36.34
2018-02-27T16:56:19.907Z,36.22
2018-02-27T16:58:47.426Z,35.98
2018-02-27T17:01:14.906Z,36.03
2018-02-27T17:03:42.394Z,35.96
2018-02-27T17:06:09.864Z,36.00
2018-02-27T17:08:37.344Z,35.88
2018-02-27T17:11:04.826Z,35.44
2018-02-27T17:13:32.289Z,35.26
2018-02-27T17:15:59.793Z,35.70
2018-02-27T17:18:27.248Z,35.73
2018-02-27T17:20:54.747Z,35.68
2018-02-27T17:23:22.272Z,35.98
2018-02-27T17:25:49.763Z,36.07
2018-02-27T17:28:17.360Z,36.18
2018-02-27T17:30:44.841Z,36.18
2018-02-27T17:33:12.306Z,36.20
2018-02-27T17:35:39.868Z,36.04
2018-02-27T17:38:07.300Z,36.28
2018-02-27T17:40:34.758Z,36.30
2018-02-27T17:43:02.223Z,36.16
2018-02-27T17:45:29.684Z,36.29
2018-02-27T17:47:57.159Z,36.56
2018-02-27T17:50:24.607Z,36.78
2018-02-27T17:52:52.073Z,36.50
2018-02-27T17:55:19.556Z,35.90
2018-02-27T17:57:47.052Z,35.59
2018-02-27T18:00:14.535Z,35.65
2018-02-27T18:02:42.017Z,35.48
2018-02-27T18:05:09.490Z,35.69
2018-02-27T18:07:37.015Z,35.67
2018-02-27T18:10:04.548Z,35.73
2018-02-27T18:12:32.494Z,35.72
2018-02-27T18:14:59.990Z,36.13
2018-02-27T18:17:27.454Z,36.20
2018-02-27T18:19:54.908Z,36.20
2018-02-27T18:22:22.411Z,36.39
2018-02-27T18:24:49.907Z,36.22
2018-02-27T18:27:17.445Z,36.39
2018-02-27T18:29:44.922Z,36.59
2018-02-27T18:32:12.446Z,36.57
2018-02-27T18:34:39.941Z,36.58
2018-02-27T18:37:07.418Z,36.37
2018-02-27T18:39:34.938Z,36.32
2018-02-27T18:42:02.453Z,36.66
2018-02-27T18:44:29.919Z,37.06
2018-02-27T18:46:57.381Z,36.73
2018-02-27T18:49:24.884Z,36.56
2018-02-27T18:51:52.366Z,36.32
2018-02-27T18:54:19.910Z,36.25
2018-02-27T18:56:47.984Z,36.54
2018-02-27T18:59:15.454Z,36.88
2018-02-27T19:01:43.881Z,37.04
2018-02-27T19:04:11.388Z,36.98
2018-02-27T19:06:38.888Z,37.23
2018-02-27T19:09:06.339Z,37.59
2018-02-27T19:11:33.851Z,37.59
2018-02-27T19:14:01.338Z,37.66
2018-02-27T19:16:28.799Z,37.75
2018-02-27T19:18:56.259Z,37.62
2018-02-27T19:21:23.761Z,37.73
2018-02-27T19:23:51.221Z,37.91
2018-02-27T19:26:18.710Z,37.98
2018-02-27T19:28:46.182Z,38.15
2018-02-27T19:31:13.653Z,37.95
2018-02-27T19:33:41.217Z,38.07
2018-02-27T19:36:08.878Z,38.03
2018-02-27T19:38:36.412Z,38.13
2018-02-27T19:41:03.946Z,38.01
2018-02-27T19:43:31.506Z,38.01
2018-02-27T19:45:58.970Z,38.03
2018-02-27T19:48:26.579Z,38.10
2018-02-27T19:50:54.060Z,38.28
2018-02-27T19:53:21.547Z,38.32
2018-02-27T19:55:48.995Z,38.29
2018-02-27T19:58:16.495Z,38.11
2018-02-27T20:00:43.965Z,38.22
2018-02-27T20:03:11.419Z,38.42
2018-02-27T20:05:38.927Z,38.44
2018-02-27T20:08:06.420Z,38.30
2018-02-27T20:10:34.510Z,38.34
2018-02-27T20:13:01.955Z,38.37
2018-02-27T20:15:29.584Z,38.66
2018-02-27T20:18:03.263Z,38.62
2018-02-27T20:20:31.223Z,38.29
2018-02-27T20:23:04.285Z,38.62
2018-02-27T20:25:31.748Z,38.44
2018-02-27T20:27:59.334Z,38.55
2018-02-27T20:30:26.806Z,38.80
2018-02-27T20:32:54.289Z,38.60
2018-02-27T20:35:21.759Z,38.44
2018-02-27T20:37:49.236Z,38.31
2018-02-27T20:40:16.738Z,38.57
2018-02-27T20:42:44.256Z,38.81
2018-02-27T20:45:11.714Z,39.05
2018-02-27T20:47:39.201Z,39.63
2018-02-27T20:50:06.619Z,39.71
2018-02-27T20:52:34.102Z,40.08
2018-02-27T20:55:01.555Z,40.00
2018-02-27T20:57:29.768Z,40.26
2018-02-27T20:59:57.297Z,40.45
2018-02-27T21:02:24.728Z,40.84
2018-02-27T21:04:52.263Z,41.02
2018-02-27T21:07:19.723Z,41.26
2018-02-27T21:09:47.244Z,40.86
2018-02-27T21:12:14.870Z,41.17
2018-02-27T21:14:42.513Z,41.27
2018-02-27T21:17:09.987Z,41.16
2018-02-27T21:19:37.566Z,40.31
2018-02-27T21:22:05.332Z,39.96
2018-02-27T21:24:33.015Z,39.79
2018-02-27T21:27:00.678Z,39.62
2018-02-27T21:29:28.225Z,39.73
2018-02-27T21:31:55.851Z,39.81
2018-02-27T21:34:23.324Z,39.93
2018-02-27T21:36:50.834Z,40.23
2018-02-27T21:39:18.360Z,40.63
2018-02-27T21:41:45.983Z,40.90
2018-02-27T21:44:13.413Z,41.33
2018-02-27T21:46:40.899Z,41.31
2018-02-27T21:49:08.346Z,41.45
2018-02-27T21:51:35.832Z,41.86
2018-02-27T21:54:03.554Z,42.07
2018-02-27T21:56:31.066Z,42.23
2018-02-27T21:58:58.510Z,42.25
2018-02-27T22:01:26.847Z,41.99
2018-02-27T22:03:54.330Z,41.94
2018-02-27T22:06:21.793Z,42.35
2018-02-27T22:08:49.271Z,42.16
2018-02-27T22:11:16.709Z,42.17
2018-02-27T22:13:44.178Z,42.34
2018-02-27T22:16:11.641Z,42.34
2018-02-27T22:18:39.128Z,42.50
2018-02-27T22:21:06.616Z,42.53
2018-02-27T22:23:34.113Z,42.76
2018-02-27T22:26:01.764Z,42.85
2018-02-27T22:28:29.259Z,43.04
2018-02-27T22:30:56.881Z,43.08
2018-02-27T22:33:24.351Z,42.91
2018-02-27T22:35:52.105Z,43.19
2018-02-27T22:38:19.833Z,43.29
2018-02-27T22:40:47.336Z,43.15
2018-02-27T22:43:14.800Z,43.12
2018-02-27T22:45:42.265Z,43.15
2018-02-27T22:48:09.881Z,42.83
2018-02-27T22:50:37.429Z,42.71
2018-02-27T22:53:05.334Z,42.82
2018-02-27T22:55:32.841Z,43.04
2018-02-27T22:58:00.315Z,43.29
2018-02-27T23:00:43.619Z,43.56
2018-02-27T23:03:11.089Z,43.96
2018-02-27T23:05:38.720Z,44.49
2018-02-27T23:08:06.319Z,44.20
2018-02-27T23:10:33.912Z,44.39
2018-02-27T23:13:01.376Z,44.21
2018-02-27T23:15:28.847Z,43.58
2018-02-27T23:17:56.287Z,42.94
2018-02-27T23:20:23.784Z,42.54
2018-02-27T23:22:51.222Z,42.69
2018-02-27T23:25:25.071Z,42.76
2018-02-27T23:27:53.071Z,43.10
2018-02-27T23:30:21.142Z,43.50
2018-02-27T23:32:55.843Z,43.78
2018-02-27T23:35:24.647Z,44.09
2018-02-27T23:37:52.572Z,44.13
2018-02-27T23:40:20.022Z,44.04
2018-02-27T23:42:47.503Z,43.84
2018-02-27T23:45:14.956Z,43.57
2018-02-27T23:47:42.393Z,43.82
2018-02-27T23:50:09.854Z,44.76
2018-02-27T23:52:37.319Z,44.96
2018-02-27T23:55:04.843Z,45.05
2018-02-27T23:57:32.273Z,45.19
2018-02-27T23:59:59.751Z,45.59
